Terminal Aerodrome Forecast
Issued by NWS

Current Version | Previous Version | Graphics & Text | Print | Product List | Glossary On
Versions: 1 2 3 4 5 6 7 8 9 10 11 12 13 14 15
000
FTUS41 KPBZ 291731
TAFHLG
TAF
KHLG 291731Z 2918/3018 13004KT P6SM SCT040
     FM300300 25005KT P6SM VCSH BKN035
     FM300700 29005KT P6SM SCT040=

USA.gov is the U.S. government's official web portal to all federal, state and local government web resources and services.